Time;durP1;ratioP1;P1;durP2;ratioP2;P2;SDS_P1;SDS_P2;PMS_P1;PMS_P2;Temp;Humidity;BMP_temperature;BMP_pressure;BME280_temperature;BME280_humidity;BME280_pressure;Samples;Min_cycle;Max_cycle;Signal;HPM_P1;HPM_P2
2023/10/12 00:01:24;;;;;;;13.90;4.35;;;;;;;12.19;76.64;95918.59;5131441;27;20296;-65
2023/10/12 00:03:55;;;;;;;5.07;3.33;;;;;;;12.46;74.96;95928.94;5132741;27;20248;-62
2023/10/12 00:06:23;;;;;;;9.27;3.60;;;;;;;12.60;74.13;95921.78;5138186;27;20256;-65
2023/10/12 00:08:49;;;;;;;6.85;3.08;;;;;;;12.60;74.09;95911.56;5132099;27;20613;-63
2023/10/12 00:11:20;;;;;;;3.95;3.05;;;;;;;12.53;74.08;95920.25;5133668;27;20272;-65
2023/10/12 00:13:47;;;;;;;11.68;3.30;;;;;;;12.58;73.62;95919.28;5130437;27;20227;-63
2023/10/12 00:16:18;;;;;;;7.68;3.03;;;;;;;12.50;74.07;95910.97;5132521;27;20650;-63
2023/10/12 00:18:46;;;;;;;5.93;3.53;;;;;;;12.56;73.84;95904.88;5129000;27;20283;-64
2023/10/12 00:21:25;;;;;;;6.28;3.00;;;;;;;12.44;74.15;95911.16;5130096;27;20196;-63
2023/10/12 00:23:53;;;;;;;2.90;2.70;;;;;;;12.49;74.03;95905.94;5127347;27;20200;-64
2023/10/12 00:26:19;;;;;;;6.55;3.13;;;;;;;12.52;74.03;95896.47;5133579;27;20700;-61
2023/10/12 00:28:50;;;;;;;3.78;3.13;;;;;;;12.49;73.93;95898.28;5130613;27;20600;-64
2023/10/12 00:31:19;;;;;;;5.13;3.08;;;;;;;12.29;74.36;95896.28;5133196;27;20231;-66
2023/10/12 00:33:48;;;;;;;6.72;3.08;;;;;;;12.25;74.57;95898.06;5125465;27;20195;-64
2023/10/12 00:36:26;;;;;;;6.35;3.30;;;;;;;12.29;74.70;95887.78;5130792;27;20200;-65
2023/10/12 00:38:56;;;;;;;7.68;3.05;;;;;;;12.45;74.13;95886.50;5136780;27;20203;-64
2023/10/12 00:41:24;;;;;;;7.13;3.00;;;;;;;-96.20;56.39;95951.41;5138868;27;20199;-64
2023/10/12 00:43:57;;;;;;;5.00;3.20;;;;;;;12.29;74.62;95885.25;5127938;27;20204;-65
2023/10/12 00:46:39;;;;;;;5.22;3.22;;;;;;;12.20;75.15;95887.16;5131607;27;20251;-64
2023/10/12 00:49:21;;;;;;;7.60;3.63;;;;;;;12.14;75.16;95884.75;5130732;27;20208;-65
2023/10/12 00:51:51;;;;;;;3.63;3.33;;;;;;;12.13;75.42;95885.63;5129918;27;20336;-65
2023/10/12 00:54:26;;;;;;;5.05;3.60;;;;;;;11.97;75.73;95884.38;5135315;27;20208;-66
2023/10/12 00:56:57;;;;;;;8.60;3.80;;;;;;;11.87;76.10;95883.78;5138913;27;20623;-65
2023/10/12 00:59:27;;;;;;;3.72;3.42;;;;;;;11.78;76.86;95873.00;5133194;27;20303;-64
2023/10/12 01:01:54;;;;;;;3.78;3.55;;;;;;;11.74;76.68;95884.09;5129296;27;20199;-65
2023/10/12 01:04:22;;;;;;;6.22;3.33;;;;;;;11.78;76.74;95880.63;5130205;27;20204;-66
2023/10/12 01:06:51;;;;;;;3.42;3.13;;;;;;;11.81;77.02;95872.91;5133465;27;20208;-67
2023/10/12 01:09:20;;;;;;;3.40;3.15;;;;;;;11.77;76.53;95878.97;5131737;27;20256;-66
2023/10/12 01:11:58;;;;;;;3.95;3.53;;;;;;;11.74;76.94;95879.84;5133353;27;20673;-65
2023/10/12 01:14:26;;;;;;;7.10;3.97;;;;;;;11.69;76.99;95883.38;5132235;27;20236;-66
2023/10/12 01:16:58;;;;;;;4.72;4.03;;;;;;;11.67;77.21;95874.94;5132871;27;20255;-63
2023/10/12 01:19:30;;;;;;;3.92;3.63;;;;;;;11.61;76.47;95880.19;5132011;27;20232;-66
2023/10/12 01:22:07;;;;;;;4.78;4.32;;;;;;;11.49;76.66;95866.88;5131365;27;20200;-65
2023/10/12 01:24:34;;;;;;;4.82;4.43;;;;;;;11.31;77.82;95869.03;5134066;27;20210;-64
2023/10/12 01:27:01;;;;;;;4.80;4.30;;;;;;;11.34;77.27;95866.41;5132208;27;20208;-62
2023/10/12 01:29:31;;;;;;;5.40;4.03;;;;;;;11.23;78.25;95864.13;5138154;27;20673;-66
2023/10/12 01:34:48;;;;;;;12.70;4.40;;;;;;;11.20;77.47;95869.28;5137448;27;20216;-64
2023/10/12 01:37:21;;;;;;;6.00;4.85;;;;;;;11.22;77.21;95868.38;5134150;27;20249;-65
2023/10/12 01:39:55;;;;;;;4.38;3.97;;;;;;;11.15;77.94;95860.91;5134594;27;20256;-65
2023/10/12 01:42:25;;;;;;;6.03;5.05;;;;;;;11.04;78.07;95867.97;5132912;27;20187;-63
2023/10/12 01:44:52;;;;;;;7.53;4.63;;;;;;;11.01;78.13;95868.84;5131363;27;20216;-66
2023/10/12 01:47:19;;;;;;;10.73;4.90;;;;;;;11.04;78.74;95870.50;5132226;27;20204;-64
2023/10/12 01:49:48;;;;;;;7.28;5.13;;;;;;;11.01;78.20;95870.56;5135130;27;20286;-65
2023/10/12 01:52:19;;;;;;;6.45;4.70;;;;;;;11.02;78.72;95869.69;5134879;27;20212;-63
2023/10/12 01:54:49;;;;;;;6.50;4.70;;;;;;;10.90;78.53;95861.44;5130528;27;20198;-61
2023/10/12 01:57:26;;;;;;;9.73;5.03;;;;;;;10.85;79.11;95876.00;5129600;27;20260;-66
2023/10/12 01:59:54;;;;;;;14.27;5.55;;;;;;;10.87;79.38;95875.97;5129448;27;20609;-65
2023/10/12 02:02:21;;;;;;;6.68;5.15;;;;;;;10.85;79.03;98216.63;5128189;27;20282;-65
2023/10/12 02:04:48;;;;;;;14.13;5.15;;;;;;;10.85;78.24;95888.72;5131826;27;20239;-66
2023/10/12 02:07:15;;;;;;;6.15;4.93;;;;;;;10.87;78.07;95883.59;5131293;27;20324;-66
2023/10/12 02:09:44;;;;;;;6.45;5.85;;;;;;;10.87;78.77;95881.88;5136679;27;20227;-67
2023/10/12 02:12:13;;;;;;;6.20;5.50;;;;;;;10.85;78.50;95878.53;5132254;27;20593;-67
2023/10/12 02:14:40;;;;;;;9.32;5.55;;;;;;;10.82;78.08;95883.69;5128763;27;20279;-66
2023/10/12 02:17:08;;;;;;;6.60;5.43;;;;;;;10.90;78.15;95880.97;5131280;27;20295;-66
2023/10/12 02:19:41;;;;;;;8.18;5.32;;;;;;;10.77;78.70;95880.41;5135493;27;20330;-65
2023/10/12 02:22:18;;;;;;;7.05;5.47;;;;;;;10.73;79.32;95883.88;5133185;27;20192;-66
2023/10/12 02:24:51;;;;;;;5.53;5.03;;;;;;;10.60;80.10;95882.47;5132767;27;20207;-64
2023/10/12 02:27:18;;;;;;;5.75;5.22;;;;;;;10.60;79.18;95877.38;5130219;27;20282;-66
2023/10/12 02:29:49;;;;;;;9.65;5.95;;;;;;;10.53;79.34;95881.75;5133500;27;20492;-66
2023/10/12 02:32:22;;;;;;;9.77;5.38;;;;;;;10.39;80.21;95885.44;5128521;27;20307;-64
2023/10/12 02:34:55;;;;;;;6.88;5.22;;;;;;;10.41;80.24;95881.97;5130013;27;20920;-65
2023/10/12 02:37:24;;;;;;;6.55;5.47;;;;;;;10.46;80.64;95879.34;5131770;27;20210;-65
2023/10/12 02:39:54;;;;;;;13.80;5.38;;;;;;;10.45;79.49;95882.75;5131950;27;20629;-64
2023/10/12 02:42:38;;;;;;;12.30;5.55;;;;;;;10.39;81.25;95882.91;5127740;27;20613;-64
2023/10/12 02:45:17;;;;;;;4.47;4.18;;;;;;;10.39;81.05;95877.81;5129773;27;20303;-65
2023/10/12 02:47:45;;;;;;;8.30;5.05;;;;;;;10.33;81.32;95883.03;5136834;27;20283;-64
2023/10/12 02:50:27;;;;;;;11.50;4.75;;;;;;;10.36;79.60;95880.44;5130648;27;20265;-65
2023/10/12 02:52:54;;;;;;;5.38;4.80;;;;;;;10.28;80.22;95880.56;5128968;27;20311;-65
2023/10/12 02:55:33;;;;;;;5.90;4.80;;;;;;;10.29;80.73;95876.31;5132270;27;20783;-65
2023/10/12 02:58:06;;;;;;;7.03;5.35;;;;;;;-96.20;60.98;111119.72;5135664;27;20695;-66
2023/10/12 03:00:36;;;;;;;9.70;5.72;;;;;;;10.13;81.58;95871.50;5129926;27;20224;-64
2023/10/12 03:03:23;;;;;;;11.80;5.50;;;;;;;10.05;83.02;95872.50;5130263;27;20207;-67
2023/10/12 03:05:52;;;;;;;8.70;6.13;;;;;;;9.96;83.54;95870.97;5131817;27;20196;-67
2023/10/12 03:08:20;;;;;;;6.95;6.15;;;;;;;9.92;82.25;95871.03;5130334;27;20236;-67
2023/10/12 03:11:09;;;;;;;7.65;6.07;;;;;;;10.00;81.89;95871.75;5130351;27;20779;-66
2023/10/12 03:13:36;;;;;;;6.50;5.85;;;;;;;9.98;83.00;95860.78;5131515;27;20200;-66
2023/10/12 03:16:13;;;;;;;6.60;5.10;;;;;;;9.92;81.89;95861.72;5132103;27;20193;-65
2023/10/12 03:18:40;;;;;;;10.57;5.90;;;;;;;9.86;84.14;95864.41;5136459;27;20199;-66
2023/10/12 03:21:11;;;;;;;11.48;5.57;;;;;;;9.85;83.59;95867.81;5140377;27;20227;-62
2023/10/12 03:23:39;;;;;;;5.63;5.13;;;;;;;9.86;82.96;95866.94;5133733;27;20200;-66
2023/10/12 03:26:18;;;;;;;9.25;6.13;;;;;;;9.89;82.34;95862.66;5135292;27;20260;-66
2023/10/12 03:28:45;;;;;;;7.60;5.75;;;;;;;9.80;83.50;95862.81;5134013;27;20207;-67
2023/10/12 03:31:25;;;;;;;7.78;5.47;;;;;;;9.76;83.76;95861.16;5133598;27;20228;-67
2023/10/12 03:33:55;;;;;;;10.50;6.35;;;;;;;9.83;84.22;95869.53;5138346;27;21119;-67
2023/10/12 03:36:24;;;;;;;6.60;5.68;;;;;;;9.92;83.35;95866.81;5142205;27;20292;-67
2023/10/12 03:41:54;;;;;;;9.80;5.95;;;;;;;9.83;83.58;95872.06;5131864;27;20300;-65
2023/10/12 03:44:26;;;;;;;5.63;5.22;;;;;;;9.72;84.57;95867.16;5136324;27;20252;-63
2023/10/12 03:47:00;;;;;;;10.68;5.75;;;;;;;9.64;84.73;95876.63;5136370;27;20196;-67
2023/10/12 03:49:32;;;;;;;9.38;6.03;;;;;;;9.60;84.89;95879.25;5133855;27;20205;-63
2023/10/12 03:52:01;;;;;;;10.18;5.78;;;;;;;9.62;83.28;95869.91;5133704;27;20328;-65
2023/10/12 03:54:29;;;;;;;6.70;6.20;;;;;;;9.55;84.12;95867.47;5137054;27;20283;-64
2023/10/12 03:57:07;;;;;;;6.68;5.72;;;;;;;9.72;83.12;95869.69;5136842;27;20212;-65
2023/10/12 03:59:44;;;;;;;7.88;6.43;;;;;;;9.70;84.41;95875.66;5135963;27;20226;-66
2023/10/12 04:02:15;;;;;;;9.85;7.60;;;;;;;9.63;85.04;95874.97;5132305;27;20580;-66
2023/10/12 04:04:52;;;;;;;22.88;12.50;;;;;;;9.72;83.07;95871.41;5135397;27;20204;-64
2023/10/12 04:07:19;;;;;;;11.02;9.05;;;;;;;9.71;84.52;95867.19;5132391;27;20234;-65
2023/10/12 04:09:52;;;;;;;9.68;7.38;;;;;;;9.81;83.57;95873.78;5133371;27;20588;-65
2023/10/12 04:12:35;;;;;;;8.23;6.53;;;;;;;9.79;83.98;95873.81;5132969;27;21846;-65
2023/10/12 04:15:05;;;;;;;8.55;5.80;;;;;;;9.67;84.33;95876.56;5133603;27;20207;-65
2023/10/12 04:17:41;;;;;;;7.65;5.65;;;;;;;9.55;84.75;95877.63;5131787;27;20588;-62
2023/10/12 04:20:17;;;;;;;11.60;6.53;;;;;;;9.62;83.67;95872.44;5133994;27;20230;-64
2023/10/12 04:25:46;;;;;;;9.25;6.10;;;;;;;9.74;82.43;95877.28;5134786;27;20229;-66
2023/10/12 04:28:22;;;;;;;10.70;6.78;;;;;;;9.77;82.40;95869.63;5135826;27;20200;-66
2023/10/12 04:33:50;;;;;;;36.80;21.13;;;;;;;9.74;83.15;95872.22;5137402;27;20215;-66
2023/10/12 04:36:25;;;;;;;18.17;10.10;;;;;;;9.69;83.66;95868.91;5130943;27;20237;-65
2023/10/12 04:39:11;;;;;;;9.18;7.88;;;;;;;9.70;83.16;95870.59;5131731;27;20196;-64
2023/10/12 04:41:46;;;;;;;46.85;21.92;;;;;;;9.62;83.02;95863.13;5129364;27;20695;-67
2023/10/12 04:44:39;;;;;;;33.15;18.08;;;;;;;9.73;83.61;95865.47;5131443;27;20218;-68
2023/10/12 04:47:06;;;;;;;16.30;9.30;;;;;;;9.65;84.05;95865.59;5136001;27;20202;-65
2023/10/12 04:52:24;;;;;;;13.90;8.27;;;;;;;9.70;84.66;95866.34;5129383;27;20227;-66
2023/10/12 04:55:06;;;;;;;11.32;7.47;;;;;;;9.89;84.36;95861.81;5129908;27;20236;-65
2023/10/12 04:57:34;;;;;;;13.63;7.45;;;;;;;9.96;83.50;95867.59;5131318;27;20222;-66
2023/10/12 05:00:17;;;;;;;7.47;6.70;;;;;;;9.96;83.22;95858.28;5135052;27;20204;-65
2023/10/12 05:02:58;;;;;;;16.63;7.68;;;;;;;10.09;83.75;95869.06;5133389;27;20189;-68
2023/10/12 05:08:10;;;;;;;12.32;7.55;;;;;;;10.28;81.71;95867.84;5130140;27;20293;-66
2023/10/12 05:10:47;;;;;;;13.00;6.43;;;;;;;10.35;82.58;95866.03;5133209;27;20235;-66
2023/10/12 05:13:19;;;;;;;19.23;7.40;;;;;;;10.42;82.72;95867.56;5131495;27;20220;-66
2023/10/12 05:15:54;;;;;;;16.73;6.72;;;;;;;10.43;80.64;95874.31;5128639;27;20666;-67
2023/10/12 05:18:22;;;;;;;8.80;6.10;;;;;;;10.62;79.80;95878.19;5131482;27;20264;-67
2023/10/12 05:20:48;;;;;;;8.35;7.55;;;;;;;10.72;79.51;95887.28;5131750;27;20215;-68
2023/10/12 05:23:16;;;;;;;11.30;6.47;;;;;;;10.77;80.08;95882.09;5131160;27;20189;-66
2023/10/12 05:25:48;;;;;;;12.32;6.70;;;;;;;10.77;60.32;95882.09;5131776;27;20708;-69
2023/10/12 05:28:15;;;;;;;11.32;7.43;;;;;;;11.02;79.02;95887.50;5136363;27;20661;-68
2023/10/12 05:30:47;;;;;;;11.45;6.65;;;;;;;11.30;77.88;95901.28;5131811;27;20224;-69
2023/10/12 05:33:37;;;;;;;18.33;7.30;;;;;;;11.48;76.83;95893.19;5132022;27;20216;-68
2023/10/12 05:36:08;;;;;;;17.13;7.35;;;;;;;11.65;76.70;95902.97;5136177;27;20199;-66
2023/10/12 05:38:36;;;;;;;14.25;7.35;;;;;;;12.16;74.71;95900.84;5144865;27;20239;-67
2023/10/12 05:41:04;;;;;;;13.57;7.05;;;;;;;12.91;71.53;95902.16;5137420;27;20523;-65
2023/10/12 05:43:33;;;;;;;16.77;7.85;;;;;;;13.33;68.52;95903.50;5130637;27;20290;-62
2023/10/12 05:46:04;;;;;;;7.57;6.78;;;;;;;13.34;69.30;95905.19;5134899;27;20681;-67
2023/10/12 05:48:34;;;;;;;14.88;7.93;;;;;;;13.10;69.79;95906.72;5137156;27;20200;-68
2023/10/12 05:51:01;;;;;;;20.50;7.28;;;;;;;13.10;70.61;63348.16;5132156;27;20192;-65
2023/10/12 05:53:29;;;;;;;12.13;6.22;;;;;;;12.67;71.17;95918.16;5130267;27;20311;-68
2023/10/12 05:55:56;;;;;;;13.93;6.75;;;;;;;12.60;71.87;95911.56;5137763;27;20191;-70
2023/10/12 05:58:23;;;;;;;12.15;6.78;;;;;;;12.54;71.68;95914.28;5128847;27;20799;-69
2023/10/12 06:00:52;;;;;;;15.02;7.38;;;;;;;12.45;71.89;95901.78;5132090;27;20236;-66
2023/10/12 06:03:21;;;;;;;11.18;6.65;;;;;;;12.70;71.47;95905.31;5132424;27;21098;-69
2023/10/12 06:05:50;;;;;;;10.27;5.90;;;;;;;13.32;69.40;95900.13;5131217;27;20200;-65
2023/10/12 06:08:18;;;;;;;10.13;5.93;;;;;;;13.68;66.77;95899.81;5131576;27;20777;-69
2023/10/12 06:10:45;;;;;;;16.90;6.32;;;;;;;14.05;65.27;95899.47;5130625;27;20191;-68
2023/10/12 06:13:14;;;;;;;13.32;6.07;;;;;;;13.95;66.22;95894.66;5131756;27;20223;-63
2023/10/12 06:15:42;;;;;;;9.10;6.00;;;;;;;13.74;67.06;95899.63;5132337;27;20196;-66
2023/10/12 06:18:11;;;;;;;13.05;6.22;;;;;;;13.86;65.99;95901.78;5131718;27;20264;-66
2023/10/12 06:20:40;;;;;;;12.48;5.88;;;;;;;14.07;65.56;95898.53;5129733;27;20287;-66
2023/10/12 06:23:13;;;;;;;8.63;6.53;;;;;;;14.63;64.25;95898.28;5129269;27;20284;-66
2023/10/12 06:25:43;;;;;;;14.50;6.70;;;;;;;15.10;62.67;95899.06;5131367;27;20215;-66
2023/10/12 06:28:17;;;;;;;6.88;6.18;;;;;;;15.27;61.55;95901.84;5133567;27;20208;-68
2023/10/12 06:30:44;;;;;;;12.23;5.88;;;;;;;15.20;60.89;95897.00;5133533;27;20215;-67
2023/10/12 06:33:14;;;;;;;10.65;6.72;;;;;;;15.15;61.17;95888.66;5130451;27;20310;-69
2023/10/12 06:35:58;;;;;;;7.82;6.88;;;;;;;15.14;61.19;95899.78;5129379;27;20208;-67
2023/10/12 06:38:37;;;;;;;10.98;6.78;;;;;;;14.92;62.73;95905.72;5127607;27;20219;-68
2023/10/12 06:43:58;;;;;;;9.93;6.28;;;;;;;14.74;63.64;95906.41;5124878;27;20192;-64
2023/10/12 06:46:27;;;;;;;8.98;5.05;;;;;;;15.03;61.45;95900.22;5128961;27;20602;-66
2023/10/12 06:49:00;;;;;;;8.27;6.15;;;;;;;14.90;62.37;95881.91;5127005;27;20287;-66
2023/10/12 06:51:28;;;;;;;10.35;6.47;;;;;;;14.94;62.76;95903.94;5129828;27;20197;-67
2023/10/12 06:54:17;;;;;;;20.40;6.55;;;;;;;14.71;62.68;95898.84;5131931;27;20222;-65
2023/10/12 06:56:49;;;;;;;6.57;5.63;;;;;;;14.64;62.64;95900.78;5134871;27;20669;-66
2023/10/12 06:59:21;;;;;;;7.47;6.82;;;;;;;14.54;63.03;95903.75;5140322;27;20286;-65
2023/10/12 07:02:09;;;;;;;9.07;7.10;;;;;;;14.42;64.45;95893.94;5135633;27;20207;-67
2023/10/12 07:04:38;;;;;;;7.22;6.45;;;;;;;14.42;63.52;95906.72;5135148;27;20203;-66
2023/10/12 07:07:07;;;;;;;22.23;7.53;;;;;;;14.28;63.97;95902.91;5131495;27;20288;-67
2023/10/12 07:09:39;;;;;;;15.82;8.40;;;;;;;14.38;65.20;95905.13;5134001;27;20192;-63
2023/10/12 07:12:08;;;;;;;12.52;6.28;;;;;;;14.57;64.73;95908.75;5141242;27;20727;-65
2023/10/12 07:14:38;;;;;;;7.75;6.72;;;;;;;14.37;64.64;95906.00;5132678;27;20227;-67
2023/10/12 07:17:07;;;;;;;15.23;6.90;;;;;;;14.50;65.07;95909.84;5132635;27;20223;-65
2023/10/12 07:19:34;;;;;;;12.52;7.03;;;;;;;14.38;63.98;95902.56;5130825;27;20208;-64
2023/10/12 07:22:01;;;;;;;15.73;8.35;;;;;;;14.36;65.11;95901.78;5132012;27;20204;-64
2023/10/12 07:24:29;;;;;;;19.02;9.43;;;;;;;14.51;63.95;95909.78;5132418;27;20287;-68
2023/10/12 07:27:09;;;;;;;22.45;8.18;;;;;;;14.83;63.55;95900.13;5134123;27;20284;-67
2023/10/12 07:29:37;;;;;;;13.55;6.13;;;;;;;15.15;62.41;95901.47;5137467;27;20197;-68
2023/10/12 07:32:19;;;;;;;10.85;6.40;;;;;;;15.40;63.00;95901.34;5133177;27;20292;-68
2023/10/12 07:34:53;;;;;;;8.95;6.28;;;;;;;15.59;61.55;95887.78;5137802;27;20206;-68
2023/10/12 07:37:19;;;;;;;12.15;6.72;;;;;;;16.11;59.49;95895.91;5134355;27;20674;-68
2023/10/12 07:39:46;;;;;;;18.60;7.15;;;;;;;16.99;57.41;95892.06;5136588;27;20811;-67
2023/10/12 07:42:24;;;;;;;9.63;6.10;;;;;;;17.92;54.70;95890.25;5132168;27;20208;-67
2023/10/12 07:44:54;;;;;;;13.30;7.20;;;;;;;18.08;53.41;95890.28;5131715;27;20211;-68
2023/10/12 07:47:31;;;;;;;7.30;6.35;;;;;;;19.09;52.01;95892.81;5134942;27;20286;-67
2023/10/12 07:50:07;;;;;;;10.18;7.10;;;;;;;19.09;45.88;95892.81;5138053;27;20199;-68
2023/10/12 07:52:45;;;;;;;14.10;6.05;;;;;;;23.31;40.86;95880.25;5135390;27;20227;-66
2023/10/12 07:55:13;;;;;;;6.95;6.35;;;;;;;23.17;40.24;95872.66;5135706;27;20204;-68
2023/10/12 07:57:41;;;;;;;7.57;5.82;;;;;;;22.73;41.36;95871.34;5133870;27;20227;-67
2023/10/12 08:00:34;;;;;;;7.32;6.57;;;;;;;22.64;41.26;95872.81;5135980;27;20245;-68
2023/10/12 08:03:17;;;;;;;8.77;6.75;;;;;;;23.86;38.82;95864.19;5131563;27;20207;-67
2023/10/12 08:05:45;;;;;;;11.07;7.00;;;;;;;24.65;36.64;95860.00;5131460;27;20677;-68
2023/10/12 08:08:33;;;;;;;12.70;6.78;;;;;;;24.42;37.27;95867.78;5132211;27;20740;-66
2023/10/12 08:11:08;;;;;;;19.35;6.28;;;;;;;25.76;35.25;95859.03;5133262;27;20606;-66
2023/10/12 08:13:47;;;;;;;13.30;6.60;;;;;;;27.28;32.45;95858.38;5132103;27;20220;-66
2023/10/12 08:16:15;;;;;;;14.00;6.72;;;;;;;28.82;29.49;95852.28;5133394;27;20199;-68
2023/10/12 08:21:31;;;;;;;13.20;6.47;;;;;;;30.53;27.67;95847.75;5135427;27;20223;-68
2023/10/12 08:24:09;;;;;;;10.43;6.88;;;;;;;31.00;26.28;95842.94;5133009;27;20215;-68
2023/10/12 08:26:47;;;;;;;6.68;6.15;;;;;;;30.71;27.05;95835.44;5134560;27;20201;-67
2023/10/12 08:30:02;;;;;;;7.85;6.07;;;;;;;30.53;27.20;95833.81;5132053;27;20226;-67
2023/10/12 08:32:14;;;;;;;15.48;7.57;;;;;;;30.50;26.78;95831.50;5131628;27;20255;-67
2023/10/12 08:35:10;;;;;;;10.57;6.93;;;;;;;29.85;27.50;95821.34;5130652;27;20603;-68
2023/10/12 08:40:21;;;;;;;13.27;6.88;;;;;;;28.52;29.25;95824.56;5131040;27;20200;-67
2023/10/12 08:42:58;;;;;;;17.23;10.18;;;;;;;28.19;30.46;95821.47;5132574;27;20291;-65
2023/10/12 08:45:27;;;;;;;11.88;10.32;;;;;;;28.17;30.39;95819.94;5131463;27;20238;-65
2023/10/12 08:47:55;;;;;;;13.85;6.20;;;;;;;27.59;30.44;95805.16;5128608;27;20673;-65
2023/10/12 08:53:08;;;;;;;9.32;6.97;;;;;;;26.93;32.10;95810.06;5128220;27;20229;-65
2023/10/12 08:55:36;;;;;;;14.00;7.65;;;;;;;26.67;32.35;95806.28;5134015;27;20206;-64
2023/10/12 08:58:12;;;;;;;19.00;6.60;;;;;;;26.03;33.88;95793.44;5133800;27;20200;-66
2023/10/12 09:00:44;;;;;;;19.20;8.60;;;;;;;25.57;34.58;95797.19;5129879;27;20708;-63
2023/10/12 09:03:27;;;;;;;15.02;6.75;;;;;;;25.18;35.78;95792.59;5133091;27;20196;-65
2023/10/12 09:05:55;;;;;;;15.82;6.47;;;;;;;24.98;36.40;95786.41;5133724;27;20275;-65
2023/10/12 09:08:39;;;;;;;12.32;6.25;;;;;;;24.68;36.45;95787.00;5130947;27;20235;-67
2023/10/12 09:11:14;;;;;;;10.43;6.35;;;;;;;24.40;37.07;95781.34;5129804;27;20500;-66
2023/10/12 09:13:45;;;;;;;9.20;6.95;;;;;;;23.82;37.48;95763.28;5129023;27;20286;-66
2023/10/12 09:16:15;;;;;;;17.33;7.18;;;;;;;23.16;39.85;95781.06;5132060;27;20304;-65
2023/10/12 09:18:46;;;;;;;11.45;7.38;;;;;;;23.07;40.81;95776.53;5131400;27;20246;-71
2023/10/12 09:21:38;;;;;;;15.93;8.45;;;;;;;22.75;41.00;95765.84;5130410;27;20208;-74
2023/10/12 09:24:07;;;;;;;15.65;7.28;;;;;;;21.52;43.36;95762.13;5129747;27;20730;-68
2023/10/12 09:26:34;;;;;;;9.00;6.85;;;;;;;20.73;46.24;95764.63;5130305;27;20196;-70
2023/10/12 09:29:12;;;;;;;16.63;7.53;;;;;;;20.85;47.09;95766.41;5132236;27;20670;-63
2023/10/12 09:31:54;;;;;;;11.00;7.00;;;;;;;21.09;45.86;95763.22;5130858;27;20216;-65
2023/10/12 09:34:42;;;;;;;150.73;108.93;;;;;;;20.79;45.84;95745.31;5133012;27;20220;-64
2023/10/12 09:37:09;;;;;;;19.42;8.07;;;;;;;20.80;46.94;95747.78;5131663;27;20199;-66
2023/10/12 09:39:36;;;;;;;11.40;6.95;;;;;;;20.78;47.99;95741.91;5130023;27;20316;-63
2023/10/12 09:42:19;;;;;;;18.02;8.23;;;;;;;21.00;47.62;95741.38;5131094;27;20196;-62
2023/10/12 09:44:51;;;;;;;20.02;7.35;;;;;;;21.26;47.65;95734.56;5133422;27;20283;-64
2023/10/12 09:47:23;;;;;;;9.80;6.82;;;;;;;21.28;46.14;95732.72;5136037;27;20203;-63
2023/10/12 09:49:55;;;;;;;12.90;7.72;;;;;;;20.88;46.60;95714.56;5129307;27;20678;-62
2023/10/12 09:52:25;;;;;;;12.90;7.05;;;;;;;20.82;48.60;95722.69;5132573;27;20238;-62
2023/10/12 09:54:57;;;;;;;8.60;7.35;;;;;;;20.91;47.32;95719.53;5129614;27;20663;-64
2023/10/12 09:57:26;;;;;;;17.40;8.52;;;;;;;20.35;48.17;95718.72;5133119;27;20203;-61
2023/10/12 09:59:59;;;;;;;9.60;7.93;;;;;;;20.35;48.17;95718.72;5130980;27;20209;-62
2023/10/12 10:02:33;;;;;;;20.48;8.50;;;;;;;20.06;48.82;95709.34;5136674;27;20569;-61
2023/10/12 10:05:11;;;;;;;10.00;7.85;;;;;;;20.14;49.36;95686.47;5130174;27;20201;-63
2023/10/12 10:07:50;;;;;;;11.80;7.28;;;;;;;20.46;50.21;95688.88;5122750;27;20259;-63
2023/10/12 10:10:28;;;;;;;8.55;7.15;;;;;;;20.81;49.18;95687.44;5133173;27;20659;-62
2023/10/12 10:12:57;;;;;;;16.52;8.48;;;;;;;21.05;47.96;95691.03;5131542;27;20216;-64
2023/10/12 10:15:24;;;;;;;11.82;7.38;;;;;;;21.12;47.45;95693.22;5131768;27;20294;-63
2023/10/12 10:17:56;;;;;;;14.50;7.13;;;;;;;21.30;100.00;95690.28;5128880;27;20770;-63
2023/10/12 10:23:19;;;;;;;16.63;7.57;;;;;;;21.24;46.52;95682.13;5099906;27;20204;-64
2023/10/12 10:25:56;;;;;;;10.48;8.07;;;;;;;21.30;47.59;95672.19;5135569;27;20231;-63
2023/10/12 10:28:27;;;;;;;8.15;6.40;;;;;;;21.54;48.82;95677.50;5137464;27;20207;-65
2023/10/12 10:30:59;;;;;;;8.30;7.15;;;;;;;21.71;45.64;95671.19;5136163;27;20232;-64
2023/10/12 10:33:28;;;;;;;15.52;8.20;;;;;;;21.71;45.64;95671.19;5138803;27;20227;-63
2023/10/12 10:36:09;;;;;;;15.95;6.95;;;;;;;21.89;46.37;95667.34;5135083;27;20195;-64
2023/10/12 10:38:42;;;;;;;7.72;6.47;;;;;;;21.94;48.85;95649.75;5137035;27;20231;-65
2023/10/12 10:41:17;;;;;;;15.25;7.22;;;;;;;-142.91;48.85;95649.75;5140358;27;20200;-63
2023/10/12 10:43:45;;;;;;;26.40;7.43;;;;;;;22.15;45.38;95650.06;5134513;27;20322;-62
2023/10/12 10:46:13;;;;;;;10.23;8.00;;;;;;;21.82;45.11;95650.59;5136399;27;20200;-64
2023/10/12 10:48:42;;;;;;;10.50;7.00;;;;;;;21.61;45.60;95636.53;5136598;27;20200;-64
2023/10/12 10:51:11;;;;;;;12.35;7.18;;;;;;;21.42;46.32;95631.78;5139051;27;20204;-63
2023/10/12 10:53:38;;;;;;;19.67;7.32;;;;;;;21.49;45.89;95633.03;5134979;27;20228;-64
2023/10/12 10:56:13;;;;;;;7.28;6.68;;;;;;;21.72;45.60;95627.13;5133618;27;20288;-62
2023/10/12 10:58:40;;;;;;;12.63;6.63;;;;;;;21.72;45.21;95623.72;5133325;27;20199;-63
2023/10/12 11:01:12;;;;;;;10.40;7.45;;;;;;;21.84;46.41;95622.03;5132433;27;20639;-63
2023/10/12 11:03:40;;;;;;;9.27;6.28;;;;;;;21.97;46.63;95615.91;5133829;27;20260;-64
2023/10/12 11:06:21;;;;;;;11.65;6.15;;;;;;;22.05;47.75;95616.19;5132498;27;20192;-63
2023/10/12 11:08:53;;;;;;;12.57;6.00;;;;;;;22.25;48.02;95606.22;5136137;27;20331;-63
2023/10/12 11:11:26;;;;;;;6.63;5.70;;;;;;;22.42;45.73;95600.66;5131327;27;20226;-64
2023/10/12 11:13:53;;;;;;;22.20;5.85;;;;;;;22.48;44.93;95589.03;5134456;27;20705;-63
2023/10/12 11:16:28;;;;;;;9.65;5.78;;;;;;;22.36;44.70;95588.97;5129565;27;20287;-65
2023/10/12 11:18:58;;;;;;;8.90;5.20;;;;;;;22.35;46.72;95584.72;5134888;27;20199;-64
2023/10/12 11:21:26;;;;;;;15.60;5.38;;;;;;;22.28;47.67;95586.09;5130567;27;20207;-62
2023/10/12 11:24:09;;;;;;;7.38;4.78;;;;;;;22.26;45.45;95585.41;5131971;27;20592;-62
2023/10/12 11:26:51;;;;;;;9.90;4.78;;;;;;;22.33;45.63;95578.84;5134575;27;20200;-62
2023/10/12 11:29:17;;;;;;;15.38;5.43;;;;;;;22.34;44.94;95574.47;5129963;27;20196;-62
2023/10/12 11:31:46;;;;;;;11.48;5.15;;;;;;;22.31;44.87;95570.34;5129528;27;20219;-63
2023/10/12 11:34:23;;;;;;;8.35;5.15;;;;;;;22.31;46.38;95560.00;5132351;27;20220;-62
2023/10/12 11:36:57;;;;;;;8.30;4.93;;;;;;;22.36;47.77;95552.72;5133119;27;20224;-62
2023/10/12 11:39:28;;;;;;;5.57;5.07;;;;;;;22.46;46.85;95557.25;5134617;27;20207;-63
2023/10/12 11:42:06;;;;;;;6.72;4.40;;;;;;;22.57;46.26;95546.91;5133396;27;20200;-64
2023/10/12 11:44:33;;;;;;;7.93;5.30;;;;;;;22.35;44.52;95548.47;5133533;27;20191;-63
2023/10/12 11:47:01;;;;;;;13.20;5.80;;;;;;;22.23;44.11;95545.97;5132105;27;20204;-63
2023/10/12 11:49:32;;;;;;;12.43;4.93;;;;;;;22.11;45.87;95542.47;5133996;27;20250;-63
2023/10/12 11:52:13;;;;;;;16.38;5.38;;;;;;;22.05;46.06;95537.72;5143604;27;20200;-64
2023/10/12 11:54:40;;;;;;;11.07;5.03;;;;;;;22.05;47.03;95537.72;5139987;27;20667;-62
2023/10/12 11:57:07;;;;;;;10.48;4.85;;;;;;;22.05;47.03;91311.88;5135700;27;20651;-63
2023/10/12 11:59:35;;;;;;;5.38;4.88;;;;;;;22.24;46.15;95530.31;5135529;27;20202;-64
2023/10/12 12:02:08;;;;;;;13.43;5.53;;;;;;;22.37;45.81;95530.25;5133006;27;20196;-64
2023/10/12 12:04:40;;;;;;;10.10;5.28;;;;;;;22.37;45.81;95530.25;5133613;27;20669;-64
2023/10/12 12:07:10;;;;;;;7.85;4.38;;;;;;;22.36;46.12;95526.81;5133458;27;20231;-64
2023/10/12 12:09:39;;;;;;;8.85;4.82;;;;;;;22.35;45.45;95519.16;5132447;27;20669;-64
2023/10/12 12:12:07;;;;;;;12.07;5.85;;;;;;;22.11;44.74;95516.59;5133905;27;20286;-62
2023/10/12 12:14:35;;;;;;;11.32;6.32;;;;;;;22.15;44.54;95525.78;5131457;27;20303;-64
2023/10/12 12:17:04;;;;;;;14.63;5.20;;;;;;;22.08;44.79;95516.81;5133934;27;20196;-63
2023/10/12 12:19:33;;;;;;;18.45;5.25;;;;;;;22.10;45.43;95514.94;5136395;27;20215;-66
2023/10/12 12:22:01;;;;;;;18.90;5.50;;;;;;;22.20;45.84;95508.16;5131640;27;20315;-66
2023/10/12 12:24:29;;;;;;;10.52;4.97;;;;;;;22.35;45.70;95511.41;5135866;27;20250;-64